sensor_id;sensor_type;location;lat;lon;timestamp;P1;durP1;ratioP1;P2;durP2;ratioP2
9661;SDS011;24982;52.344;12.990;2023-06-10T00:02:26;6.28;;;4.10;;
9661;SDS011;24982;52.344;12.990;2023-06-10T00:05:28;7.65;;;4.32;;
9661;SDS011;24982;52.344;12.990;2023-06-10T00:08:31;6.70;;;4.50;;
9661;SDS011;24982;52.344;12.990;2023-06-10T00:11:34;6.38;;;4.15;;
9661;SDS011;24982;52.344;12.990;2023-06-10T00:14:37;6.93;;;4.38;;
9661;SDS011;24982;52.344;12.990;2023-06-10T00:17:39;8.05;;;4.47;;
9661;SDS011;24982;52.344;12.990;2023-06-10T00:20:42;7.75;;;4.30;;
9661;SDS011;24982;52.344;12.990;2023-06-10T00:23:44;7.00;;;4.00;;
9661;SDS011;24982;52.344;12.990;2023-06-10T00:26:48;10.82;;;4.10;;
9661;SDS011;24982;52.344;12.990;2023-06-10T00:29:50;5.43;;;3.88;;
9661;SDS011;24982;52.344;12.990;2023-06-10T00:32:52;6.32;;;4.20;;
9661;SDS011;24982;52.344;12.990;2023-06-10T00:35:54;6.55;;;4.65;;
9661;SDS011;24982;52.344;12.990;2023-06-10T00:38:56;5.63;;;4.13;;
9661;SDS011;24982;52.344;12.990;2023-06-10T00:41:59;6.88;;;4.25;;
9661;SDS011;24982;52.344;12.990;2023-06-10T00:45:01;8.52;;;4.30;;
9661;SDS011;24982;52.344;12.990;2023-06-10T00:48:03;8.80;;;4.85;;
9661;SDS011;24982;52.344;12.990;2023-06-10T00:51:06;7.35;;;4.20;;
9661;SDS011;24982;52.344;12.990;2023-06-10T00:54:09;8.23;;;4.32;;
9661;SDS011;24982;52.344;12.990;2023-06-10T00:57:16;5.68;;;4.13;;
9661;SDS011;24982;52.344;12.990;2023-06-10T01:00:18;6.63;;;3.92;;
9661;SDS011;24982;52.344;12.990;2023-06-10T01:03:20;8.85;;;4.28;;
9661;SDS011;24982;52.344;12.990;2023-06-10T01:06:24;5.20;;;3.78;;
9661;SDS011;24982;52.344;12.990;2023-06-10T01:09:38;5.47;;;4.10;;
9661;SDS011;24982;52.344;12.990;2023-06-10T01:12:45;6.50;;;4.20;;
9661;SDS011;24982;52.344;12.990;2023-06-10T01:16:04;10.43;;;4.20;;
9661;SDS011;24982;52.344;12.990;2023-06-10T01:19:07;11.55;;;4.80;;
9661;SDS011;24982;52.344;12.990;2023-06-10T01:22:11;7.60;;;4.20;;
9661;SDS011;24982;52.344;12.990;2023-06-10T01:25:16;6.80;;;4.45;;
9661;SDS011;24982;52.344;12.990;2023-06-10T01:28:19;5.15;;;4.25;;
9661;SDS011;24982;52.344;12.990;2023-06-10T01:31:30;5.10;;;3.95;;
9661;SDS011;24982;52.344;12.990;2023-06-10T01:34:37;7.88;;;4.30;;
9661;SDS011;24982;52.344;12.990;2023-06-10T01:37:45;8.00;;;4.45;;
9661;SDS011;24982;52.344;12.990;2023-06-10T01:40:48;5.70;;;3.75;;
9661;SDS011;24982;52.344;12.990;2023-06-10T01:43:50;6.88;;;4.25;;
9661;SDS011;24982;52.344;12.990;2023-06-10T01:46:52;7.22;;;4.70;;
9661;SDS011;24982;52.344;12.990;2023-06-10T01:49:54;6.90;;;4.03;;
9661;SDS011;24982;52.344;12.990;2023-06-10T01:52:59;7.53;;;4.07;;
9661;SDS011;24982;52.344;12.990;2023-06-10T01:56:01;6.65;;;4.13;;
9661;SDS011;24982;52.344;12.990;2023-06-10T01:59:03;9.18;;;4.00;;
9661;SDS011;24982;52.344;12.990;2023-06-10T02:02:06;5.80;;;4.00;;
9661;SDS011;24982;52.344;12.990;2023-06-10T02:05:08;5.30;;;4.28;;
9661;SDS011;24982;52.344;12.990;2023-06-10T02:08:11;5.97;;;4.18;;
9661;SDS011;24982;52.344;12.990;2023-06-10T02:11:13;8.32;;;4.35;;
9661;SDS011;24982;52.344;12.990;2023-06-10T02:14:15;6.32;;;4.13;;
9661;SDS011;24982;52.344;12.990;2023-06-10T02:17:17;6.22;;;4.20;;
9661;SDS011;24982;52.344;12.990;2023-06-10T02:20:19;8.75;;;3.95;;
9661;SDS011;24982;52.344;12.990;2023-06-10T02:23:23;7.22;;;3.80;;
9661;SDS011;24982;52.344;12.990;2023-06-10T02:26:25;10.05;;;4.22;;
9661;SDS011;24982;52.344;12.990;2023-06-10T02:29:27;7.15;;;4.35;;
9661;SDS011;24982;52.344;12.990;2023-06-10T02:32:29;7.80;;;3.97;;
9661;SDS011;24982;52.344;12.990;2023-06-10T02:35:31;7.63;;;4.07;;
9661;SDS011;24982;52.344;12.990;2023-06-10T02:38:35;5.97;;;3.65;;
9661;SDS011;24982;52.344;12.990;2023-06-10T02:41:37;9.82;;;4.10;;
9661;SDS011;24982;52.344;12.990;2023-06-10T02:44:39;7.72;;;4.30;;
9661;SDS011;24982;52.344;12.990;2023-06-10T02:47:44;6.20;;;4.50;;
9661;SDS011;24982;52.344;12.990;2023-06-10T02:50:47;9.02;;;4.30;;
9661;SDS011;24982;52.344;12.990;2023-06-10T02:54:03;7.18;;;4.20;;
9661;SDS011;24982;52.344;12.990;2023-06-10T02:57:06;7.90;;;4.00;;
9661;SDS011;24982;52.344;12.990;2023-06-10T03:00:08;6.60;;;4.30;;
9661;SDS011;24982;52.344;12.990;2023-06-10T03:03:12;10.07;;;4.47;;
9661;SDS011;24982;52.344;12.990;2023-06-10T03:06:46;7.03;;;4.05;;
9661;SDS011;24982;52.344;12.990;2023-06-10T03:09:59;7.00;;;4.07;;
9661;SDS011;24982;52.344;12.990;2023-06-10T03:13:01;8.95;;;4.18;;
9661;SDS011;24982;52.344;12.990;2023-06-10T03:16:04;9.52;;;4.15;;
9661;SDS011;24982;52.344;12.990;2023-06-10T03:19:11;6.72;;;3.80;;
9661;SDS011;24982;52.344;12.990;2023-06-10T03:22:16;9.30;;;4.20;;
9661;SDS011;24982;52.344;12.990;2023-06-10T03:25:27;8.68;;;4.20;;
9661;SDS011;24982;52.344;12.990;2023-06-10T03:28:31;7.55;;;4.10;;
9661;SDS011;24982;52.344;12.990;2023-06-10T03:31:33;7.90;;;4.07;;
9661;SDS011;24982;52.344;12.990;2023-06-10T03:34:40;6.47;;;4.13;;
9661;SDS011;24982;52.344;12.990;2023-06-10T03:37:43;10.60;;;4.32;;
9661;SDS011;24982;52.344;12.990;2023-06-10T03:40:47;9.60;;;4.50;;
9661;SDS011;24982;52.344;12.990;2023-06-10T03:43:49;8.77;;;4.45;;
9661;SDS011;24982;52.344;12.990;2023-06-10T03:46:51;8.15;;;4.18;;
9661;SDS011;24982;52.344;12.990;2023-06-10T03:49:53;7.75;;;4.10;;
9661;SDS011;24982;52.344;12.990;2023-06-10T03:52:57;7.90;;;3.92;;
9661;SDS011;24982;52.344;12.990;2023-06-10T03:56:02;10.07;;;4.30;;
9661;SDS011;24982;52.344;12.990;2023-06-10T03:59:04;5.90;;;4.47;;
9661;SDS011;24982;52.344;12.990;2023-06-10T04:02:08;7.40;;;4.72;;
9661;SDS011;24982;52.344;12.990;2023-06-10T04:05:10;9.02;;;4.00;;
9661;SDS011;24982;52.344;12.990;2023-06-10T04:08:12;6.25;;;4.03;;
9661;SDS011;24982;52.344;12.990;2023-06-10T04:11:15;5.80;;;3.85;;
9661;SDS011;24982;52.344;12.990;2023-06-10T04:14:17;8.93;;;4.35;;
9661;SDS011;24982;52.344;12.990;2023-06-10T04:17:20;9.18;;;4.57;;
9661;SDS011;24982;52.344;12.990;2023-06-10T04:20:23;6.85;;;4.25;;
9661;SDS011;24982;52.344;12.990;2023-06-10T04:23:25;6.25;;;4.30;;
9661;SDS011;24982;52.344;12.990;2023-06-10T04:26:29;8.45;;;4.25;;
9661;SDS011;24982;52.344;12.990;2023-06-10T04:29:31;6.03;;;4.35;;
9661;SDS011;24982;52.344;12.990;2023-06-10T04:32:33;6.05;;;4.03;;
9661;SDS011;24982;52.344;12.990;2023-06-10T04:35:36;8.27;;;4.30;;
9661;SDS011;24982;52.344;12.990;2023-06-10T04:38:41;5.60;;;4.20;;
9661;SDS011;24982;52.344;12.990;2023-06-10T04:41:44;7.03;;;4.78;;
9661;SDS011;24982;52.344;12.990;2023-06-10T04:44:47;10.32;;;4.75;;
9661;SDS011;24982;52.344;12.990;2023-06-10T04:47:49;8.02;;;4.43;;
9661;SDS011;24982;52.344;12.990;2023-06-10T04:50:52;10.52;;;4.30;;
9661;SDS011;24982;52.344;12.990;2023-06-10T04:53:54;13.57;;;4.82;;
9661;SDS011;24982;52.344;12.990;2023-06-10T04:56:57;7.50;;;4.50;;
9661;SDS011;24982;52.344;12.990;2023-06-10T04:59:59;9.68;;;4.35;;
9661;SDS011;24982;52.344;12.990;2023-06-10T05:03:01;9.32;;;5.07;;
9661;SDS011;24982;52.344;12.990;2023-06-10T05:06:03;8.52;;;5.03;;
9661;SDS011;24982;52.344;12.990;2023-06-10T05:09:05;8.48;;;4.60;;
9661;SDS011;24982;52.344;12.990;2023-06-10T05:12:09;9.32;;;4.90;;
9661;SDS011;24982;52.344;12.990;2023-06-10T05:15:11;6.90;;;4.72;;
9661;SDS011;24982;52.344;12.990;2023-06-10T05:18:13;6.90;;;4.50;;
9661;SDS011;24982;52.344;12.990;2023-06-10T05:21:15;7.72;;;4.90;;
9661;SDS011;24982;52.344;12.990;2023-06-10T05:24:17;6.28;;;4.72;;
9661;SDS011;24982;52.344;12.990;2023-06-10T05:27:21;9.18;;;5.10;;
9661;SDS011;24982;52.344;12.990;2023-06-10T05:30:23;7.20;;;5.00;;
9661;SDS011;24982;52.344;12.990;2023-06-10T05:33:26;5.43;;;4.80;;
9661;SDS011;24982;52.344;12.990;2023-06-10T05:36:28;8.73;;;4.97;;
9661;SDS011;24982;52.344;12.990;2023-06-10T05:39:29;8.63;;;5.13;;
9661;SDS011;24982;52.344;12.990;2023-06-10T05:42:33;25.73;;;7.57;;
9661;SDS011;24982;52.344;12.990;2023-06-10T05:45:35;10.07;;;5.70;;
9661;SDS011;24982;52.344;12.990;2023-06-10T05:48:37;11.30;;;5.50;;
9661;SDS011;24982;52.344;12.990;2023-06-10T05:51:39;8.82;;;6.30;;
9661;SDS011;24982;52.344;12.990;2023-06-10T05:54:41;8.35;;;5.95;;
9661;SDS011;24982;52.344;12.990;2023-06-10T05:57:44;8.93;;;5.50;;
9661;SDS011;24982;52.344;12.990;2023-06-10T06:00:46;13.15;;;6.40;;
9661;SDS011;24982;52.344;12.990;2023-06-10T06:03:48;8.13;;;5.82;;
9661;SDS011;24982;52.344;12.990;2023-06-10T06:06:50;11.82;;;6.60;;
9661;SDS011;24982;52.344;12.990;2023-06-10T06:09:52;8.25;;;5.75;;
9661;SDS011;24982;52.344;12.990;2023-06-10T06:12:55;11.20;;;6.40;;
9661;SDS011;24982;52.344;12.990;2023-06-10T06:15:57;12.88;;;6.70;;
9661;SDS011;24982;52.344;12.990;2023-06-10T06:18:59;7.15;;;5.38;;
9661;SDS011;24982;52.344;12.990;2023-06-10T06:22:01;8.63;;;6.20;;
9661;SDS011;24982;52.344;12.990;2023-06-10T06:25:03;7.97;;;6.35;;
9661;SDS011;24982;52.344;12.990;2023-06-10T06:28:07;11.18;;;6.50;;
9661;SDS011;24982;52.344;12.990;2023-06-10T06:31:11;8.43;;;6.30;;
9661;SDS011;24982;52.344;12.990;2023-06-10T06:34:12;9.40;;;6.50;;
9661;SDS011;24982;52.344;12.990;2023-06-10T06:37:14;10.00;;;6.47;;
9661;SDS011;24982;52.344;12.990;2023-06-10T06:40:18;8.05;;;6.13;;
9661;SDS011;24982;52.344;12.990;2023-06-10T06:43:22;9.98;;;6.63;;
9661;SDS011;24982;52.344;12.990;2023-06-10T06:46:49;11.27;;;6.75;;
9661;SDS011;24982;52.344;12.990;2023-06-10T06:49:51;9.73;;;6.88;;
9661;SDS011;24982;52.344;12.990;2023-06-10T06:52:53;11.23;;;6.18;;
9661;SDS011;24982;52.344;12.990;2023-06-10T06:55:55;8.65;;;6.60;;
9661;SDS011;24982;52.344;12.990;2023-06-10T06:58:59;9.23;;;6.43;;
9661;SDS011;24982;52.344;12.990;2023-06-10T07:02:02;9.85;;;6.53;;
9661;SDS011;24982;52.344;12.990;2023-06-10T07:05:04;7.78;;;6.22;;
9661;SDS011;24982;52.344;12.990;2023-06-10T07:08:08;8.27;;;6.32;;
9661;SDS011;24982;52.344;12.990;2023-06-10T07:11:12;7.65;;;6.32;;
9661;SDS011;24982;52.344;12.990;2023-06-10T07:14:15;9.77;;;6.10;;
9661;SDS011;24982;52.344;12.990;2023-06-10T07:17:17;9.43;;;6.38;;
9661;SDS011;24982;52.344;12.990;2023-06-10T07:20:19;7.70;;;6.35;;
9661;SDS011;24982;52.344;12.990;2023-06-10T07:23:21;7.70;;;5.80;;
9661;SDS011;24982;52.344;12.990;2023-06-10T07:26:23;10.25;;;6.38;;
9661;SDS011;24982;52.344;12.990;2023-06-10T07:29:27;6.80;;;6.10;;
9661;SDS011;24982;52.344;12.990;2023-06-10T07:32:29;8.27;;;6.47;;
9661;SDS011;24982;52.344;12.990;2023-06-10T07:35:31;9.07;;;6.43;;
9661;SDS011;24982;52.344;12.990;2023-06-10T07:38:33;13.15;;;7.30;;
9661;SDS011;24982;52.344;12.990;2023-06-10T07:41:35;9.10;;;6.22;;
9661;SDS011;24982;52.344;12.990;2023-06-10T07:44:38;7.68;;;6.70;;
9661;SDS011;24982;52.344;12.990;2023-06-10T07:47:40;10.27;;;7.30;;
9661;SDS011;24982;52.344;12.990;2023-06-10T07:50:42;9.77;;;6.65;;
9661;SDS011;24982;52.344;12.990;2023-06-10T07:53:48;8.43;;;6.40;;
9661;SDS011;24982;52.344;12.990;2023-06-10T07:56:51;8.27;;;6.80;;
9661;SDS011;24982;52.344;12.990;2023-06-10T07:59:54;7.82;;;6.60;;
9661;SDS011;24982;52.344;12.990;2023-06-10T08:02:57;8.57;;;6.70;;
9661;SDS011;24982;52.344;12.990;2023-06-10T08:05:59;9.77;;;6.43;;
9661;SDS011;24982;52.344;12.990;2023-06-10T08:09:02;11.55;;;7.03;;
9661;SDS011;24982;52.344;12.990;2023-06-10T08:12:06;8.30;;;6.88;;
9661;SDS011;24982;52.344;12.990;2023-06-10T08:15:14;8.38;;;6.90;;
9661;SDS011;24982;52.344;12.990;2023-06-10T08:18:19;8.90;;;7.00;;
9661;SDS011;24982;52.344;12.990;2023-06-10T08:21:21;9.00;;;7.18;;
9661;SDS011;24982;52.344;12.990;2023-06-10T08:24:23;7.50;;;6.78;;
9661;SDS011;24982;52.344;12.990;2023-06-10T08:27:25;11.30;;;8.02;;
9661;SDS011;24982;52.344;12.990;2023-06-10T08:30:28;9.25;;;6.65;;
9661;SDS011;24982;52.344;12.990;2023-06-10T08:33:30;9.10;;;7.40;;
9661;SDS011;24982;52.344;12.990;2023-06-10T08:36:33;11.13;;;7.00;;
9661;SDS011;24982;52.344;12.990;2023-06-10T08:39:35;7.40;;;6.45;;
9661;SDS011;24982;52.344;12.990;2023-06-10T08:42:38;10.98;;;6.63;;
9661;SDS011;24982;52.344;12.990;2023-06-10T08:45:45;8.60;;;7.43;;
9661;SDS011;24982;52.344;12.990;2023-06-10T08:48:50;7.95;;;7.15;;
9661;SDS011;24982;52.344;12.990;2023-06-10T08:51:58;8.73;;;7.15;;
9661;SDS011;24982;52.344;12.990;2023-06-10T08:55:03;6.97;;;6.28;;
9661;SDS011;24982;52.344;12.990;2023-06-10T08:58:05;9.40;;;6.82;;
9661;SDS011;24982;52.344;12.990;2023-06-10T09:01:09;8.80;;;6.80;;
9661;SDS011;24982;52.344;12.990;2023-06-10T09:04:11;9.07;;;7.07;;
9661;SDS011;24982;52.344;12.990;2023-06-10T09:07:14;11.60;;;7.25;;
9661;SDS011;24982;52.344;12.990;2023-06-10T09:10:16;9.65;;;7.07;;
9661;SDS011;24982;52.344;12.990;2023-06-10T09:13:18;10.35;;;7.03;;
9661;SDS011;24982;52.344;12.990;2023-06-10T09:16:22;9.95;;;7.15;;
9661;SDS011;24982;52.344;12.990;2023-06-10T09:19:25;10.73;;;6.97;;
9661;SDS011;24982;52.344;12.990;2023-06-10T09:22:28;7.70;;;6.90;;
9661;SDS011;24982;52.344;12.990;2023-06-10T09:25:34;9.93;;;7.05;;
9661;SDS011;24982;52.344;12.990;2023-06-10T09:28:37;10.63;;;7.20;;
9661;SDS011;24982;52.344;12.990;2023-06-10T09:31:41;9.90;;;6.90;;
9661;SDS011;24982;52.344;12.990;2023-06-10T09:34:45;9.82;;;7.22;;
9661;SDS011;24982;52.344;12.990;2023-06-10T09:37:49;9.50;;;6.70;;
9661;SDS011;24982;52.344;12.990;2023-06-10T09:40:53;8.95;;;7.07;;
9661;SDS011;24982;52.344;12.990;2023-06-10T09:43:55;8.68;;;7.18;;
9661;SDS011;24982;52.344;12.990;2023-06-10T09:46:59;8.50;;;6.78;;
9661;SDS011;24982;52.344;12.990;2023-06-10T09:50:01;12.63;;;7.53;;
9661;SDS011;24982;52.344;12.990;2023-06-10T09:53:03;11.45;;;6.43;;
9661;SDS011;24982;52.344;12.990;2023-06-10T09:56:07;11.07;;;6.88;;
9661;SDS011;24982;52.344;12.990;2023-06-10T09:59:10;10.10;;;7.25;;
9661;SDS011;24982;52.344;12.990;2023-06-10T10:02:16;11.70;;;6.72;;
9661;SDS011;24982;52.344;12.990;2023-06-10T10:05:19;7.60;;;6.88;;
9661;SDS011;24982;52.344;12.990;2023-06-10T10:08:22;10.18;;;6.90;;
9661;SDS011;24982;52.344;12.990;2023-06-10T10:11:24;10.32;;;7.38;;
9661;SDS011;24982;52.344;12.990;2023-06-10T10:14:27;7.82;;;6.95;;
9661;SDS011;24982;52.344;12.990;2023-06-10T10:17:34;8.38;;;7.07;;
9661;SDS011;24982;52.344;12.990;2023-06-10T10:20:41;7.30;;;6.60;;
9661;SDS011;24982;52.344;12.990;2023-06-10T10:23:53;10.60;;;6.78;;
9661;SDS011;24982;52.344;12.990;2023-06-10T10:27:03;10.48;;;7.35;;
9661;SDS011;24982;52.344;12.990;2023-06-10T10:30:12;9.50;;;7.30;;
9661;SDS011;24982;52.344;12.990;2023-06-10T10:33:18;10.50;;;7.93;;
9661;SDS011;24982;52.344;12.990;2023-06-10T10:36:22;23.75;;;10.85;;
9661;SDS011;24982;52.344;12.990;2023-06-10T10:39:24;11.18;;;8.15;;
9661;SDS011;24982;52.344;12.990;2023-06-10T10:42:28;8.88;;;7.10;;
9661;SDS011;24982;52.344;12.990;2023-06-10T10:45:31;8.73;;;6.65;;
9661;SDS011;24982;52.344;12.990;2023-06-10T10:48:37;7.45;;;6.47;;
9661;SDS011;24982;52.344;12.990;2023-06-10T10:51:53;8.32;;;6.82;;
9661;SDS011;24982;52.344;12.990;2023-06-10T10:54:57;8.60;;;7.55;;
9661;SDS011;24982;52.344;12.990;2023-06-10T10:57:59;10.88;;;7.63;;
9661;SDS011;24982;52.344;12.990;2023-06-10T11:01:11;18.75;;;9.18;;
9661;SDS011;24982;52.344;12.990;2023-06-10T11:04:16;20.88;;;8.45;;
9661;SDS011;24982;52.344;12.990;2023-06-10T11:07:19;13.98;;;7.45;;
9661;SDS011;24982;52.344;12.990;2023-06-10T11:10:28;9.07;;;6.82;;
9661;SDS011;24982;52.344;12.990;2023-06-10T11:13:31;8.45;;;6.50;;
9661;SDS011;24982;52.344;12.990;2023-06-10T11:16:37;7.00;;;6.38;;
9661;SDS011;24982;52.344;12.990;2023-06-10T11:19:44;8.23;;;6.32;;
9661;SDS011;24982;52.344;12.990;2023-06-10T11:22:58;7.68;;;6.88;;
9661;SDS011;24982;52.344;12.990;2023-06-10T11:26:10;6.85;;;6.22;;
9661;SDS011;24982;52.344;12.990;2023-06-10T11:29:31;6.95;;;6.20;;
9661;SDS011;24982;52.344;12.990;2023-06-10T11:32:33;8.93;;;6.30;;
9661;SDS011;24982;52.344;12.990;2023-06-10T11:35:37;9.43;;;6.45;;
9661;SDS011;24982;52.344;12.990;2023-06-10T11:38:40;7.30;;;6.38;;
9661;SDS011;24982;52.344;12.990;2023-06-10T11:41:43;6.60;;;6.00;;
9661;SDS011;24982;52.344;12.990;2023-06-10T11:44:48;12.98;;;5.45;;
9661;SDS011;24982;52.344;12.990;2023-06-10T11:47:57;6.50;;;5.50;;
9661;SDS011;24982;52.344;12.990;2023-06-10T11:51:01;7.88;;;5.97;;
9661;SDS011;24982;52.344;12.990;2023-06-10T11:54:08;5.43;;;5.00;;
9661;SDS011;24982;52.344;12.990;2023-06-10T11:57:11;8.25;;;5.03;;
9661;SDS011;24982;52.344;12.990;2023-06-10T12:00:21;5.38;;;4.88;;
9661;SDS011;24982;52.344;12.990;2023-06-10T12:03:26;7.15;;;5.25;;
9661;SDS011;24982;52.344;12.990;2023-06-10T12:06:42;6.80;;;5.10;;
9661;SDS011;24982;52.344;12.990;2023-06-10T12:09:46;5.63;;;5.20;;
9661;SDS011;24982;52.344;12.990;2023-06-10T12:12:59;6.47;;;5.38;;
9661;SDS011;24982;52.344;12.990;2023-06-10T12:16:08;5.88;;;5.25;;
9661;SDS011;24982;52.344;12.990;2023-06-10T12:19:10;7.00;;;5.63;;
9661;SDS011;24982;52.344;12.990;2023-06-10T12:22:13;6.78;;;5.32;;
9661;SDS011;24982;52.344;12.990;2023-06-10T12:25:16;8.48;;;6.15;;
9661;SDS011;24982;52.344;12.990;2023-06-10T12:28:20;9.10;;;5.90;;
9661;SDS011;24982;52.344;12.990;2023-06-10T12:31:22;12.85;;;5.90;;
9661;SDS011;24982;52.344;12.990;2023-06-10T12:34:31;6.13;;;5.72;;
9661;SDS011;24982;52.344;12.990;2023-06-10T12:37:37;7.28;;;5.80;;
9661;SDS011;24982;52.344;12.990;2023-06-10T12:40:39;8.07;;;6.35;;
9661;SDS011;24982;52.344;12.990;2023-06-10T12:43:41;6.40;;;5.82;;
9661;SDS011;24982;52.344;12.990;2023-06-10T12:46:43;6.55;;;5.55;;
9661;SDS011;24982;52.344;12.990;2023-06-10T12:49:55;7.13;;;6.13;;
9661;SDS011;24982;52.344;12.990;2023-06-10T12:52:59;7.40;;;5.90;;
9661;SDS011;24982;52.344;12.990;2023-06-10T12:56:01;6.30;;;5.80;;
9661;SDS011;24982;52.344;12.990;2023-06-10T12:59:03;7.13;;;5.55;;
9661;SDS011;24982;52.344;12.990;2023-06-10T13:02:06;6.22;;;5.63;;
9661;SDS011;24982;52.344;12.990;2023-06-10T13:05:07;6.10;;;5.45;;
9661;SDS011;24982;52.344;12.990;2023-06-10T13:08:11;6.80;;;5.47;;
9661;SDS011;24982;52.344;12.990;2023-06-10T13:11:13;5.80;;;5.38;;
9661;SDS011;24982;52.344;12.990;2023-06-10T13:14:15;6.25;;;5.65;;
9661;SDS011;24982;52.344;12.990;2023-06-10T13:17:17;5.57;;;5.00;;
9661;SDS011;24982;52.344;12.990;2023-06-10T13:20:20;5.13;;;4.63;;
9661;SDS011;24982;52.344;12.990;2023-06-10T13:23:24;5.38;;;4.88;;
9661;SDS011;24982;52.344;12.990;2023-06-10T13:26:25;6.28;;;5.20;;
9661;SDS011;24982;52.344;12.990;2023-06-10T13:29:27;5.82;;;4.85;;
9661;SDS011;24982;52.344;12.990;2023-06-10T13:32:31;6.15;;;5.18;;
9661;SDS011;24982;52.344;12.990;2023-06-10T13:35:33;6.28;;;5.70;;
9661;SDS011;24982;52.344;12.990;2023-06-10T13:38:36;5.97;;;5.25;;
9661;SDS011;24982;52.344;12.990;2023-06-10T13:41:38;6.90;;;5.72;;
9661;SDS011;24982;52.344;12.990;2023-06-10T13:44:41;6.30;;;5.80;;
9661;SDS011;24982;52.344;12.990;2023-06-10T13:47:43;6.00;;;5.43;;
9661;SDS011;24982;52.344;12.990;2023-06-10T13:50:45;6.85;;;5.70;;
9661;SDS011;24982;52.344;12.990;2023-06-10T13:53:48;6.28;;;5.65;;
9661;SDS011;24982;52.344;12.990;2023-06-10T13:56:50;5.40;;;4.90;;
9661;SDS011;24982;52.344;12.990;2023-06-10T13:59:52;5.30;;;4.85;;
9661;SDS011;24982;52.344;12.990;2023-06-10T14:02:56;6.00;;;5.45;;
9661;SDS011;24982;52.344;12.990;2023-06-10T14:05:58;8.00;;;5.88;;
9661;SDS011;24982;52.344;12.990;2023-06-10T14:09:01;6.00;;;5.60;;
9661;SDS011;24982;52.344;12.990;2023-06-10T14:12:04;6.93;;;6.32;;
9661;SDS011;24982;52.344;12.990;2023-06-10T14:15:07;6.90;;;6.30;;
9661;SDS011;24982;52.344;12.990;2023-06-10T14:18:09;9.05;;;6.10;;
9661;SDS011;24982;52.344;12.990;2023-06-10T14:21:11;6.45;;;5.88;;
9661;SDS011;24982;52.344;12.990;2023-06-10T14:24:14;7.53;;;6.28;;
9661;SDS011;24982;52.344;12.990;2023-06-10T14:27:16;8.32;;;5.80;;
9661;SDS011;24982;52.344;12.990;2023-06-10T14:30:19;8.80;;;6.43;;
9661;SDS011;24982;52.344;12.990;2023-06-10T14:33:25;6.35;;;5.75;;
9661;SDS011;24982;52.344;12.990;2023-06-10T14:36:27;8.13;;;5.80;;
9661;SDS011;24982;52.344;12.990;2023-06-10T14:39:30;5.75;;;5.28;;
9661;SDS011;24982;52.344;12.990;2023-06-10T14:42:32;8.52;;;5.75;;
9661;SDS011;24982;52.344;12.990;2023-06-10T14:45:34;18.05;;;7.38;;
9661;SDS011;24982;52.344;12.990;2023-06-10T14:48:36;27.98;;;8.63;;
9661;SDS011;24982;52.344;12.990;2023-06-10T14:51:38;22.67;;;9.68;;
9661;SDS011;24982;52.344;12.990;2023-06-10T14:54:42;20.73;;;9.40;;
9661;SDS011;24982;52.344;12.990;2023-06-10T14:57:44;17.67;;;8.20;;
9661;SDS011;24982;52.344;12.990;2023-06-10T15:00:46;14.27;;;7.93;;
9661;SDS011;24982;52.344;12.990;2023-06-10T15:03:48;13.93;;;7.82;;
9661;SDS011;24982;52.344;12.990;2023-06-10T15:06:49;13.00;;;7.55;;
9661;SDS011;24982;52.344;12.990;2023-06-10T15:09:53;12.98;;;8.10;;
9661;SDS011;24982;52.344;12.990;2023-06-10T15:12:55;10.52;;;7.38;;
9661;SDS011;24982;52.344;12.990;2023-06-10T15:15:57;15.90;;;9.23;;
9661;SDS011;24982;52.344;12.990;2023-06-10T15:18:59;12.07;;;9.35;;
9661;SDS011;24982;52.344;12.990;2023-06-10T15:22:01;16.02;;;9.50;;
9661;SDS011;24982;52.344;12.990;2023-06-10T15:25:05;9.75;;;8.73;;
9661;SDS011;24982;52.344;12.990;2023-06-10T15:28:08;14.15;;;9.43;;
9661;SDS011;24982;52.344;12.990;2023-06-10T15:31:10;17.85;;;10.70;;
9661;SDS011;24982;52.344;12.990;2023-06-10T15:34:12;15.43;;;10.43;;
9661;SDS011;24982;52.344;12.990;2023-06-10T15:37:14;10.82;;;8.40;;
9661;SDS011;24982;52.344;12.990;2023-06-10T15:40:17;11.55;;;8.98;;
9661;SDS011;24982;52.344;12.990;2023-06-10T15:43:19;10.07;;;8.52;;
9661;SDS011;24982;52.344;12.990;2023-06-10T15:46:21;11.10;;;9.57;;
9661;SDS011;24982;52.344;12.990;2023-06-10T15:49:24;11.65;;;9.95;;
9661;SDS011;24982;52.344;12.990;2023-06-10T15:52:29;10.80;;;9.55;;
9661;SDS011;24982;52.344;12.990;2023-06-10T15:55:32;11.07;;;9.75;;
9661;SDS011;24982;52.344;12.990;2023-06-10T15:58:34;10.52;;;8.98;;
9661;SDS011;24982;52.344;12.990;2023-06-10T16:01:36;9.70;;;8.80;;
9661;SDS011;24982;52.344;12.990;2023-06-10T16:04:38;9.30;;;8.40;;
9661;SDS011;24982;52.344;12.990;2023-06-10T16:07:40;10.30;;;9.32;;
9661;SDS011;24982;52.344;12.990;2023-06-10T16:10:47;9.82;;;8.93;;
9661;SDS011;24982;52.344;12.990;2023-06-10T16:13:49;21.13;;;18.95;;
9661;SDS011;24982;52.344;12.990;2023-06-10T16:16:51;19.55;;;17.55;;
9661;SDS011;24982;52.344;12.990;2023-06-10T16:19:53;16.45;;;14.77;;
9661;SDS011;24982;52.344;12.990;2023-06-10T16:22:55;16.35;;;14.63;;
9661;SDS011;24982;52.344;12.990;2023-06-10T16:25:58;15.50;;;12.80;;
9661;SDS011;24982;52.344;12.990;2023-06-10T16:29:00;15.65;;;13.85;;
9661;SDS011;24982;52.344;12.990;2023-06-10T16:32:02;12.13;;;10.50;;
9661;SDS011;24982;52.344;12.990;2023-06-10T16:35:04;10.70;;;9.80;;
9661;SDS011;24982;52.344;12.990;2023-06-10T16:38:06;11.40;;;10.23;;
9661;SDS011;24982;52.344;12.990;2023-06-10T16:41:10;10.65;;;9.55;;
9661;SDS011;24982;52.344;12.990;2023-06-10T16:44:12;13.77;;;9.80;;
9661;SDS011;24982;52.344;12.990;2023-06-10T16:47:16;10.13;;;9.13;;
9661;SDS011;24982;52.344;12.990;2023-06-10T16:50:18;9.40;;;8.50;;
9661;SDS011;24982;52.344;12.990;2023-06-10T16:53:20;8.88;;;8.02;;
9661;SDS011;24982;52.344;12.990;2023-06-10T16:56:23;8.77;;;7.85;;
9661;SDS011;24982;52.344;12.990;2023-06-10T16:59:26;8.25;;;6.65;;
9661;SDS011;24982;52.344;12.990;2023-06-10T17:02:28;23.20;;;20.27;;
9661;SDS011;24982;52.344;12.990;2023-06-10T17:05:32;16.20;;;13.40;;
9661;SDS011;24982;52.344;12.990;2023-06-10T17:08:34;10.70;;;9.40;;
9661;SDS011;24982;52.344;12.990;2023-06-10T17:11:37;10.93;;;8.00;;
9661;SDS011;24982;52.344;12.990;2023-06-10T17:14:39;13.57;;;8.57;;
9661;SDS011;24982;52.344;12.990;2023-06-10T17:17:41;9.40;;;7.25;;
9661;SDS011;24982;52.344;12.990;2023-06-10T17:20:43;8.70;;;7.30;;
9661;SDS011;24982;52.344;12.990;2023-06-10T17:23:45;7.03;;;6.32;;
9661;SDS011;24982;52.344;12.990;2023-06-10T17:26:48;6.53;;;5.82;;
9661;SDS011;24982;52.344;12.990;2023-06-10T17:29:50;6.55;;;5.72;;
9661;SDS011;24982;52.344;12.990;2023-06-10T17:32:52;9.07;;;6.18;;
9661;SDS011;24982;52.344;12.990;2023-06-10T17:35:54;8.30;;;6.50;;
9661;SDS011;24982;52.344;12.990;2023-06-10T17:38:56;6.90;;;6.30;;
9661;SDS011;24982;52.344;12.990;2023-06-10T17:41:59;6.88;;;6.32;;
9661;SDS011;24982;52.344;12.990;2023-06-10T17:45:01;8.98;;;7.88;;
9661;SDS011;24982;52.344;12.990;2023-06-10T17:48:03;11.23;;;6.50;;
9661;SDS011;24982;52.344;12.990;2023-06-10T17:51:05;8.52;;;6.43;;
9661;SDS011;24982;52.344;12.990;2023-06-10T17:54:07;7.30;;;6.60;;
9661;SDS011;24982;52.344;12.990;2023-06-10T17:57:11;9.13;;;7.00;;
9661;SDS011;24982;52.344;12.990;2023-06-10T18:00:13;8.07;;;7.18;;
9661;SDS011;24982;52.344;12.990;2023-06-10T18:03:15;8.95;;;7.93;;
9661;SDS011;24982;52.344;12.990;2023-06-10T18:06:26;11.43;;;9.73;;
9661;SDS011;24982;52.344;12.990;2023-06-10T18:09:27;10.77;;;9.68;;
9661;SDS011;24982;52.344;12.990;2023-06-10T18:12:31;10.50;;;8.00;;
9661;SDS011;24982;52.344;12.990;2023-06-10T18:15:33;6.50;;;6.00;;
9661;SDS011;24982;52.344;12.990;2023-06-10T18:18:35;7.05;;;6.32;;
9661;SDS011;24982;52.344;12.990;2023-06-10T18:21:37;7.72;;;6.78;;